Koninklijk Nederlands Meteorologisch Instituut; Ministerie van Verkeer en Waterstaat

 
Weer
Nederlandse vliegveldverwachtingen (TAF)
ZCZC
FT221700 EHAM     AMSTERDAM/SCHIPHOL   NLD   -3 m.
TAF EHAM 221709Z 2218/2324 31008KT 9999 SCT025
    BECMG 2221/2224 26008KT SCT012 BKN018
    PROB30 TEMPO 2300/2317 7000 -RADZ SCT008 BKN014
    BECMG 2303/2305 22005KT SCT018 SCT025
    BECMG 2311/2314 19010KT
    TEMPO 2317/2324 6000 RADZ SCT006 BKN008=

ZCZC
FT221700 EHGG     GRONINGEN/EELDE   NLD   5 m.
TAF EHGG 221708Z 2218/2324 29008KT 9999 SCT030
    PROB30 TEMPO 2302/2320 6000 -RADZ SCT008 BKN012
    PROB40 TEMPO 2320/2324 4500 RADZ BKN006=

ZCZC
FT221700 EHRD     ROTTERDAM/THE HAGUE AIRPORT   NLD   -5 m.
TAF EHRD 221709Z 2218/2324 31008KT 9999 SCT025
    BECMG 2221/2224 26008KT SCT012 BKN018
    PROB30 TEMPO 2300/2317 7000 -RADZ SCT008 BKN014
    BECMG 2303/2306 22005KT SCT018 SCT025
    BECMG 2311/2314 19010KT
    TEMPO 2317/2324 6000 RADZ SCT006 BKN008=

ZCZC
FT221700 EHBK     MAASTRICHT/MAASTRICHT-AACHEN   NLD   114 m.
TAF EHBK 221708Z 2218/2324 27008KT 9999 SCT030
    PROB30 2305/2308 BKN008=

ZCZC
FT221700 EHEH     EINDHOVEN/EINDHOVEN   NLD   22 m.
TAF EHEH 221735Z 2218/2324 26008KT CAVOK
    BECMG 2302/2305 20008KT
    PROB30 2302/2309 SCT010 BKN015
    BECMG 2309/2311 SCT015 BKN050
    BECMG 2319/2319 SCT010 BKN015=

ZCZC
FC222000 EHWO     WOENSDRECHT/WOENSDRECHT   NLD   19 m.
TAF EHWO 222000Z NIL=

ZCZC
FC222000 EHVK     VOLKEL/VOLKEL   NLD   21 m.
TAF EHVK 222000Z NIL=

ZCZC
FC222000 EHLW     LEEUWARDEN/LEEUWARDEN   NLD   1 m.
TAF EHLW 222050Z 2221/2309 28005KT 9999 SCT025 SCT050=

ZCZC
FC222000 EHGR     GILZE-RIJEN/GILZE-RIJEN   NLD   14 m.
TAF EHGR 222000Z NIL=

ZCZC
FC222100 EHKD     DE KOOY/DE KOOY   NLD   1 m.
TAF EHKD 222100Z NIL=